Ringgold, Pennsylvania
Current Conditions -  °F | °C
As of 3:53 AM on Saturday 25 Oct 2014 (Local Time) from KDUJ Reporting Station
Overcast Overcast  
Wind Chill: 43°   Ceiling: 4300
Heat Index: 45°   Visibility: 10mi
Dew Point: 39°   Wind: 5mph
Humidity: 80%   Direction: 230°SW
Pressure: 29.94"   Gusts: NA
Location:  40.99°N, 79.17°W
Report Text: KDUJ 250753Z AUTO 23004KT 10SM OVC043 07/04 A2994 RMK AO2 SLP140 T00720039
Loading
Personal Weather Stations






























Interactive Weather Map
Tropical Storm Tracking
New forecast layout! Learn more

10-Day Weather Forecast

Advertisements
Track Severe Weather on mobile